createdAt,value
2022-09-10T00:01:24.631Z,96992.28
2022-09-10T00:03:51.623Z,96986.06
2022-09-10T00:06:18.974Z,96984.72
2022-09-10T00:08:46.832Z,96983.19
2022-09-10T00:11:15.105Z,96986.59
2022-09-10T00:13:42.644Z,96987.75
2022-09-10T00:16:12.128Z,96977.22
2022-09-10T00:18:40.041Z,96984.50
2022-09-10T00:21:10.482Z,96976.25
2022-09-10T00:23:37.135Z,96981.56
2022-09-10T00:26:31.728Z,96986.00
2022-09-10T00:28:59.901Z,96972.66
2022-09-10T00:31:27.039Z,96971.03
2022-09-10T00:33:54.865Z,96976.66
2022-09-10T00:36:27.350Z,96972.00
2022-09-10T00:38:55.135Z,96970.56
2022-09-10T00:41:24.145Z,96963.72
2022-09-10T00:43:54.929Z,96968.44
2022-09-10T00:46:31.502Z,96957.09
2022-09-10T00:48:59.502Z,96961.31
2022-09-10T00:51:27.254Z,96956.88
2022-09-10T00:53:54.416Z,96958.31
2022-09-10T00:56:21.620Z,96955.88
2022-09-10T00:58:49.241Z,96950.78
2022-09-10T01:01:16.487Z,96941.81
2022-09-10T01:03:44.064Z,96946.06
2022-09-10T01:06:11.295Z,96943.53
2022-09-10T01:08:38.258Z,96941.56
2022-09-10T01:11:35.947Z,96947.06
2022-09-10T01:14:38.779Z,96948.94
2022-09-10T01:17:33.698Z,96945.88
2022-09-10T01:20:28.802Z,96943.38
2022-09-10T01:23:08.716Z,96950.41
2022-09-10T01:25:54.007Z,96946.84
2022-09-10T01:28:30.862Z,96951.94
2022-09-10T01:31:05.600Z,96950.59
2022-09-10T01:33:37.460Z,96955.81
2022-09-10T01:36:12.637Z,96957.13
2022-09-10T01:38:42.037Z,96963.06
2022-09-10T01:41:10.195Z,96958.38
2022-09-10T01:43:41.976Z,96961.84
2022-09-10T01:46:44.542Z,96958.28
2022-09-10T01:49:34.849Z,96957.88
2022-09-10T01:52:01.593Z,96950.41
2022-09-10T01:55:11.044Z,96950.63
2022-09-10T01:57:59.366Z,96963.69
2022-09-10T02:00:36.978Z,96962.25
2022-09-10T02:03:05.486Z,96969.78
2022-09-10T02:05:37.331Z,96963.69
2022-09-10T02:08:15.054Z,96972.94
2022-09-10T02:10:59.353Z,96975.09
2022-09-10T02:13:30.422Z,96975.91
2022-09-10T02:16:29.152Z,96972.44
2022-09-10T02:18:58.074Z,96972.44
2022-09-10T02:21:24.842Z,96978.13
2022-09-10T02:23:57.039Z,96973.66
2022-09-10T02:26:25.875Z,96975.72
2022-09-10T02:28:54.589Z,96969.56
2022-09-10T02:31:22.519Z,96970.38
2022-09-10T02:33:49.590Z,96979.56
2022-09-10T02:36:16.297Z,96971.28
2022-09-10T02:38:48.647Z,96973.84
2022-09-10T02:41:21.787Z,96975.47
2022-09-10T02:43:48.853Z,96973.97
2022-09-10T02:46:15.662Z,96976.91
2022-09-10T02:48:42.422Z,96975.06
2022-09-10T02:51:09.356Z,96977.28
2022-09-10T02:53:38.238Z,96971.28
2022-09-10T02:56:07.691Z,96970.97
2022-09-10T02:58:36.439Z,96974.44
2022-09-10T03:01:11.441Z,96976.38
2022-09-10T03:03:39.272Z,96977.91
2022-09-10T03:06:06.336Z,96980.06
2022-09-10T03:08:33.291Z,96986.38
2022-09-10T03:11:00.215Z,96973.41
2022-09-10T03:13:28.002Z,96978.72
2022-09-10T03:15:58.900Z,96979.84
2022-09-10T03:18:27.902Z,96976.59
2022-09-10T03:20:54.597Z,96973.22
2022-09-10T03:23:27.368Z,96973.41
2022-09-10T03:25:55.694Z,96977.69
2022-09-10T03:28:26.391Z,96975.03
2022-09-10T03:30:53.337Z,96981.53
2022-09-10T03:33:21.295Z,96983.16
2022-09-10T03:35:52.348Z,96977.66
2022-09-10T03:38:19.101Z,96981.03
2022-09-10T03:40:46.610Z,96983.78
2022-09-10T03:43:13.390Z,96981.84
2022-09-10T03:45:40.305Z,96977.94
2022-09-10T03:48:07.029Z,96974.75
2022-09-10T03:50:33.873Z,96978.84
2022-09-10T03:53:03.993Z,96983.72
2022-09-10T03:55:30.966Z,96981.50
2022-09-10T03:57:58.279Z,96980.88
2022-09-10T04:00:27.107Z,96985.25
2022-09-10T04:02:53.890Z,96983.72
2022-09-10T04:05:21.408Z,96982.41
2022-09-10T04:07:48.897Z,96983.53
2022-09-10T04:10:18.126Z,96983.38
2022-09-10T04:12:45.788Z,96984.69
2022-09-10T04:15:13.833Z,96980.50
2022-09-10T04:17:41.035Z,96994.41
2022-09-10T04:20:08.302Z,96993.16
2022-09-10T04:22:35.277Z,96982.63
2022-09-10T04:25:01.957Z,96975.09
2022-09-10T04:27:28.825Z,96975.59
2022-09-10T04:29:56.467Z,96976.94
2022-09-10T04:32:23.814Z,96983.38
2022-09-10T04:34:51.575Z,96985.38
2022-09-10T04:37:19.552Z,96987.63
2022-09-10T04:39:47.223Z,96985.69
2022-09-10T04:42:15.433Z,96995.28
2022-09-10T04:44:42.188Z,96997.66
2022-09-10T04:47:08.929Z,97001.03
2022-09-10T04:49:35.683Z,97001.75
2022-09-10T04:52:02.609Z,97003.09
2022-09-10T04:54:29.446Z,96992.38
2022-09-10T04:56:56.925Z,96993.09
2022-09-10T04:59:23.826Z,97001.16
2022-09-10T05:01:51.307Z,96997.81
2022-09-10T05:04:18.613Z,97002.41
2022-09-10T05:06:50.411Z,97004.34
2022-09-10T05:09:17.784Z,97001.41
2022-09-10T05:11:44.557Z,97004.44
2022-09-10T05:14:12.011Z,97016.91
2022-09-10T05:16:39.325Z,97012.72
2022-09-10T05:19:06.700Z,97019.66
2022-09-10T05:21:41.034Z,97008.00
2022-09-10T05:24:07.828Z,97015.56
2022-09-10T05:26:34.614Z,97011.66
2022-09-10T05:29:01.517Z,97007.78
2022-09-10T05:31:28.368Z,96997.47
2022-09-10T05:33:55.995Z,97003.59
2022-09-10T05:36:22.762Z,97011.97
2022-09-10T05:38:49.482Z,97014.19
2022-09-10T05:41:16.670Z,97021.22
2022-09-10T05:43:46.566Z,97018.19
2022-09-10T05:46:13.622Z,97022.19
2022-09-10T05:48:44.541Z,97014.13
2022-09-10T05:51:12.685Z,97022.84
2022-09-10T05:53:41.687Z,97017.66
2022-09-10T05:56:08.580Z,97020.06
2022-09-10T05:58:36.385Z,97019.44
2022-09-10T06:01:04.302Z,97027.53
2022-09-10T06:03:32.002Z,97023.16
2022-09-10T06:06:01.024Z,97026.72
2022-09-10T06:08:32.537Z,97017.94
2022-09-10T06:11:05.901Z,97024.03
2022-09-10T06:13:42.234Z,97019.84
2022-09-10T06:16:09.652Z,97026.91
2022-09-10T06:18:37.255Z,97027.22
2022-09-10T06:21:12.696Z,97034.56
2022-09-10T06:23:42.239Z,97032.47
2022-09-10T06:26:17.294Z,97035.31
2022-09-10T06:28:45.081Z,97035.50
2022-09-10T06:31:17.021Z,97040.88
2022-09-10T06:33:44.505Z,97039.66
2022-09-10T06:36:11.443Z,97044.44
2022-09-10T06:38:38.324Z,97045.69
2022-09-10T06:41:08.901Z,97050.28
2022-09-10T06:43:41.781Z,97054.47
2022-09-10T06:49:11.433Z,97063.81
2022-09-10T06:51:39.820Z,97062.66
2022-09-10T06:54:09.066Z,97068.22
2022-09-10T06:56:36.324Z,97069.66
2022-09-10T06:59:04.506Z,97074.09
2022-09-10T07:01:35.948Z,97080.31
2022-09-10T07:04:02.909Z,97085.31
2022-09-10T07:06:34.813Z,97081.41
2022-09-10T07:09:08.253Z,97089.59
2022-09-10T07:11:57.507Z,97101.66
2022-09-10T07:14:24.785Z,97092.91
2022-09-10T07:16:53.705Z,97093.16
2022-09-10T07:19:23.650Z,97097.97
2022-09-10T07:21:50.758Z,97102.09
2022-09-10T07:24:18.158Z,97103.66
2022-09-10T07:27:11.511Z,97106.28
2022-09-10T07:29:41.246Z,97118.03
2022-09-10T07:32:13.654Z,97107.50
2022-09-10T07:34:43.635Z,97113.84
2022-09-10T07:37:15.563Z,97109.38
2022-09-10T07:39:42.643Z,97110.91
2022-09-10T07:42:11.632Z,97114.28
2022-09-10T07:44:39.911Z,97115.78
2022-09-10T07:47:06.757Z,97123.66
2022-09-10T07:49:33.562Z,97134.25
2022-09-10T07:52:00.430Z,97124.28
2022-09-10T07:54:32.614Z,97134.50
2022-09-10T07:57:00.418Z,97139.31
2022-09-10T07:59:29.175Z,97138.63
2022-09-10T08:02:00.331Z,97148.25
2022-09-10T08:04:36.409Z,97149.06
2022-09-10T08:07:05.592Z,97145.94
2022-09-10T08:09:34.411Z,97149.66
2022-09-10T08:12:02.433Z,97143.22
2022-09-10T08:14:30.010Z,97144.19
2022-09-10T08:16:57.075Z,97144.78
2022-09-10T08:19:24.618Z,97150.53
2022-09-10T08:21:52.318Z,97152.47
2022-09-10T08:24:28.167Z,97154.81
2022-09-10T08:26:55.286Z,97152.06
2022-09-10T08:29:23.222Z,97159.22
2022-09-10T08:31:50.592Z,97158.47
2022-09-10T08:34:27.073Z,97158.13
2022-09-10T08:37:03.385Z,97158.66
2022-09-10T08:39:31.977Z,97156.59
2022-09-10T08:42:07.941Z,97164.97
2022-09-10T08:44:49.936Z,97167.53
2022-09-10T08:47:49.280Z,97167.97
2022-09-10T08:50:32.178Z,97153.03
2022-09-10T08:53:01.019Z,97157.97
2022-09-10T08:55:34.449Z,97165.66
2022-09-10T08:58:07.338Z,97171.13
2022-09-10T09:00:38.241Z,97166.00
2022-09-10T09:03:36.966Z,97169.00
2022-09-10T09:06:05.800Z,97167.81
2022-09-10T09:08:48.504Z,97168.13
2022-09-10T09:11:33.452Z,97178.66
2022-09-10T09:14:25.016Z,97173.97
2022-09-10T09:16:53.314Z,97179.56
2022-09-10T09:19:25.546Z,97174.78
2022-09-10T09:21:55.088Z,97176.16
2022-09-10T09:24:48.370Z,97173.13
2022-09-10T09:27:18.075Z,97170.72
2022-09-10T09:29:57.925Z,97170.34
2022-09-10T09:32:25.102Z,97172.38
2022-09-10T09:34:57.578Z,97163.22
2022-09-10T09:37:30.213Z,97167.06
2022-09-10T09:40:12.588Z,97165.75
2022-09-10T09:42:53.190Z,97177.75
2022-09-10T09:45:34.977Z,97166.06
2022-09-10T09:48:02.751Z,97165.41
2022-09-10T09:50:33.583Z,97178.91
2022-09-10T09:53:00.296Z,97170.97
2022-09-10T09:55:34.951Z,97176.78
2022-09-10T09:58:26.811Z,97167.25
2022-09-10T10:00:56.013Z,97161.28
2022-09-10T10:03:26.987Z,97162.72
2022-09-10T10:06:05.990Z,97168.31
2022-09-10T10:08:37.768Z,97174.88
2022-09-10T10:11:05.061Z,97166.16
2022-09-10T10:13:39.266Z,97158.69
2022-09-10T10:16:35.109Z,97169.75
2022-09-10T10:19:02.269Z,97159.41
2022-09-10T10:21:33.927Z,97153.41
2022-09-10T10:24:04.237Z,97153.03
2022-09-10T10:26:31.472Z,97149.31
2022-09-10T10:29:07.987Z,97147.50
2022-09-10T10:31:45.124Z,97138.88
2022-09-10T10:34:16.541Z,97146.09
2022-09-10T10:37:05.788Z,97150.16
2022-09-10T10:39:57.111Z,97150.72
2022-09-10T10:42:23.758Z,97147.78
2022-09-10T10:45:01.032Z,97138.78
2022-09-10T10:47:28.106Z,97144.38
2022-09-10T10:50:01.730Z,97145.75
2022-09-10T10:53:04.595Z,97139.63
2022-09-10T10:56:22.544Z,97143.84
2022-09-10T10:59:13.907Z,97155.75
2022-09-10T11:02:23.870Z,97151.94
2022-09-10T11:04:52.075Z,97154.91
2022-09-10T11:07:23.442Z,97149.31
2022-09-10T11:10:31.894Z,97144.84
2022-09-10T11:13:05.781Z,97141.38
2022-09-10T11:15:36.104Z,97129.78
2022-09-10T11:18:05.829Z,97137.34
2022-09-10T11:20:38.293Z,97136.97
2022-09-10T11:23:26.200Z,97134.59
2022-09-10T11:26:05.845Z,97144.56
2022-09-10T11:28:58.609Z,97146.31
2022-09-10T11:31:32.777Z,97133.50
2022-09-10T11:34:12.567Z,97140.69
2022-09-10T11:36:49.535Z,97146.31
2022-09-10T11:39:35.592Z,97138.97
2022-09-10T11:42:15.975Z,97140.03
2022-09-10T11:44:45.992Z,97131.97
2022-09-10T11:47:15.623Z,97132.88
2022-09-10T11:49:58.298Z,97142.91
2022-09-10T11:52:27.800Z,97144.78
2022-09-10T11:54:54.793Z,97132.19
2022-09-10T11:57:36.657Z,97145.31
2022-09-10T12:00:15.981Z,97140.34
2022-09-10T12:03:20.439Z,97137.31
2022-09-10T12:06:00.709Z,97142.75
2022-09-10T12:08:46.346Z,97143.00
2022-09-10T12:11:31.767Z,97145.50
2022-09-10T12:13:58.977Z,97146.03
2022-09-10T12:16:46.392Z,97135.59
2022-09-10T12:19:37.312Z,97135.25
2022-09-10T12:22:06.552Z,97155.22
2022-09-10T12:24:36.177Z,97146.81
2022-09-10T12:27:05.357Z,97152.53
2022-09-10T12:29:37.222Z,97141.75
2022-09-10T12:32:19.215Z,97154.34
2022-09-10T12:34:49.839Z,97155.78
2022-09-10T12:37:34.615Z,97158.41
2022-09-10T12:40:32.035Z,97149.44
2022-09-10T12:43:01.820Z,97146.84
2022-09-10T12:46:06.470Z,97144.09
2022-09-10T12:48:35.913Z,97137.88
2022-09-10T12:51:23.607Z,97144.50
2022-09-10T12:54:28.624Z,97152.31
2022-09-10T12:57:17.442Z,97148.28
2022-09-10T13:00:13.239Z,97142.78
2022-09-10T13:02:53.216Z,97149.06
2022-09-10T13:05:22.620Z,97146.91
2022-09-10T13:07:57.645Z,97149.84
2022-09-10T13:10:27.102Z,97139.47
2022-09-10T13:12:57.453Z,97143.75
2022-09-10T13:15:26.810Z,97142.06
2022-09-10T13:17:54.531Z,97132.69
2022-09-10T13:20:21.710Z,97135.69
2022-09-10T13:23:04.301Z,97139.03
2022-09-10T13:25:35.528Z,97135.03
2022-09-10T13:28:28.972Z,97136.13
2022-09-10T13:31:02.142Z,97138.38
2022-09-10T13:33:31.148Z,97133.66
2022-09-10T13:36:20.574Z,97123.84
2022-09-10T13:38:58.585Z,97126.13
2022-09-10T13:41:53.143Z,97130.38
2022-09-10T13:44:39.655Z,97125.63
2022-09-10T13:47:13.421Z,97140.28
2022-09-10T13:49:47.614Z,97141.75
2022-09-10T13:52:16.769Z,97135.91
2022-09-10T13:54:50.370Z,97139.56
2022-09-10T13:57:29.978Z,97137.78
2022-09-10T14:00:17.930Z,97140.00
2022-09-10T14:02:47.922Z,97136.47
2022-09-10T14:05:41.594Z,97126.13
2022-09-10T14:08:24.005Z,97128.47
2022-09-10T14:10:52.993Z,97134.84
2022-09-10T14:13:28.388Z,97125.31
2022-09-10T14:15:57.047Z,97120.34
2022-09-10T14:18:31.941Z,97125.06
2022-09-10T14:20:59.793Z,97126.50
2022-09-10T14:23:26.702Z,97124.56
2022-09-10T14:26:09.904Z,97119.56
2022-09-10T14:28:49.248Z,97130.63
2022-09-10T14:31:30.202Z,97125.91
2022-09-10T14:33:58.462Z,97120.06
2022-09-10T14:36:28.104Z,97120.44
2022-09-10T14:39:16.911Z,97116.81
2022-09-10T14:41:44.457Z,97110.16
2022-09-10T14:44:23.295Z,97112.63
2022-09-10T14:46:57.407Z,97107.78
2022-09-10T14:49:26.804Z,97110.97
2022-09-10T14:51:53.999Z,97115.66
2022-09-10T14:54:20.888Z,97108.66
2022-09-10T14:56:48.521Z,97110.44
2022-09-10T14:59:30.513Z,97113.41
2022-09-10T15:01:58.096Z,97110.41
2022-09-10T15:04:29.552Z,97112.53
2022-09-10T15:06:58.094Z,97113.25
2022-09-10T15:09:26.402Z,97119.66
2022-09-10T15:12:05.156Z,97112.97
2022-09-10T15:14:33.413Z,97115.16
2022-09-10T15:17:05.318Z,97108.59
2022-09-10T15:19:32.534Z,97113.09
2022-09-10T15:22:02.474Z,97120.44
2022-09-10T15:24:29.301Z,97109.91
2022-09-10T15:26:56.583Z,97107.28
2022-09-10T15:29:28.601Z,97105.78
2022-09-10T15:31:59.478Z,97102.06
2022-09-10T15:34:26.281Z,97107.84
2022-09-10T15:36:53.238Z,97116.59
2022-09-10T15:39:20.205Z,97105.56
2022-09-10T15:41:47.106Z,97108.44
2022-09-10T15:44:14.718Z,97108.59
2022-09-10T15:46:42.659Z,97106.22
2022-09-10T15:49:09.433Z,97107.25
2022-09-10T15:51:37.922Z,97110.25
2022-09-10T15:54:05.501Z,97109.25
2022-09-10T15:56:32.797Z,97102.44
2022-09-10T15:58:59.596Z,97111.13
2022-09-10T16:01:28.132Z,97111.47
2022-09-10T16:03:57.541Z,97100.31
2022-09-10T16:06:27.642Z,97108.97
2022-09-10T16:08:57.361Z,97116.41
2022-09-10T16:11:26.435Z,97120.06
2022-09-10T16:13:55.821Z,97128.38
2022-09-10T16:16:23.984Z,97120.19
2022-09-10T16:18:56.519Z,97112.56
2022-09-10T16:21:26.240Z,97122.41
2022-09-10T16:23:54.582Z,97119.56
2022-09-10T16:26:23.868Z,97125.84
2022-09-10T16:28:54.871Z,97131.25
2022-09-10T16:31:26.166Z,97128.97
2022-09-10T16:33:55.057Z,97134.81
2022-09-10T16:36:23.530Z,97136.22
2022-09-10T16:38:55.943Z,97139.72
2022-09-10T16:41:23.602Z,97138.50
2022-09-10T16:43:50.549Z,97144.53
2022-09-10T16:46:17.698Z,97134.19
2022-09-10T16:48:44.670Z,97142.75
2022-09-10T16:51:16.119Z,97145.00
2022-09-10T16:53:44.446Z,97151.25
2022-09-10T16:56:17.486Z,97146.22
2022-09-10T16:58:48.434Z,97145.34
2022-09-10T17:01:15.835Z,97136.88
2022-09-10T17:03:49.932Z,97155.31
2022-09-10T17:06:20.552Z,97153.75
2022-09-10T17:08:47.802Z,97156.66
2022-09-10T17:11:16.076Z,97165.38
2022-09-10T17:13:42.986Z,97151.97
2022-09-10T17:16:16.761Z,97152.50
2022-09-10T17:18:47.574Z,97154.50
2022-09-10T17:21:14.454Z,97150.91
2022-09-10T17:23:41.608Z,97154.88
2022-09-10T17:26:09.298Z,97153.28
2022-09-10T17:28:37.096Z,97145.59
2022-09-10T17:31:04.987Z,97149.81
2022-09-10T17:33:31.867Z,97160.00
2022-09-10T17:36:00.474Z,97152.78
2022-09-10T17:38:33.132Z,97161.00
2022-09-10T17:41:02.194Z,97167.53
2022-09-10T17:43:31.831Z,97169.66
2022-09-10T17:45:59.535Z,97159.06
2022-09-10T17:48:29.054Z,97161.72
2022-09-10T17:50:55.814Z,97169.16
2022-09-10T17:53:24.068Z,97174.47
2022-09-10T17:55:50.773Z,97171.44
2022-09-10T17:58:17.629Z,97162.59
2022-09-10T18:00:49.527Z,97166.69
2022-09-10T18:03:17.705Z,97166.34
2022-09-10T18:05:45.846Z,97177.13
2022-09-10T18:08:12.777Z,97178.38
2022-09-10T18:10:39.646Z,97180.16
2022-09-10T18:13:10.070Z,97175.69
2022-09-10T18:15:42.237Z,97182.09
2022-09-10T18:18:10.477Z,97179.97
2022-09-10T18:20:37.145Z,97187.63
2022-09-10T18:23:04.101Z,97183.25
2022-09-10T18:25:34.164Z,97196.38
2022-09-10T18:28:01.737Z,97190.31
2022-09-10T18:30:29.745Z,97200.78
2022-09-10T18:32:56.408Z,97204.72
2022-09-10T18:35:23.163Z,97208.09
2022-09-10T18:37:51.786Z,97209.50
2022-09-10T18:40:19.736Z,97219.78
2022-09-10T18:42:48.126Z,97224.03
2022-09-10T18:45:14.870Z,97220.69
2022-09-10T18:47:45.273Z,97226.19
2022-09-10T18:50:13.403Z,97224.16
2022-09-10T18:52:40.307Z,97221.81
2022-09-10T18:55:07.529Z,97222.25
2022-09-10T18:57:34.230Z,97227.38
2022-09-10T19:00:01.130Z,97223.63
2022-09-10T19:02:27.873Z,97237.44
2022-09-10T19:05:10.855Z,97238.84
2022-09-10T19:07:38.912Z,97243.59
2022-09-10T19:10:07.141Z,97241.63
2022-09-10T19:12:34.300Z,97247.78
2022-09-10T19:15:01.002Z,97251.56
2022-09-10T19:17:27.885Z,97250.03
2022-09-10T19:19:54.517Z,97249.31
2022-09-10T19:22:21.301Z,97251.25
2022-09-10T19:24:54.936Z,97242.47
2022-09-10T19:27:23.515Z,97256.19
2022-09-10T19:29:50.483Z,97254.66
2022-09-10T19:32:19.760Z,97253.91
2022-09-10T19:34:50.174Z,97247.81
2022-09-10T19:37:17.328Z,97260.34
2022-09-10T19:39:44.600Z,97263.13
2022-09-10T19:42:12.664Z,97262.72
2022-09-10T19:44:39.386Z,97269.47
2022-09-10T19:47:06.233Z,97264.44
2022-09-10T19:49:34.173Z,97270.06
2022-09-10T19:52:01.196Z,97269.78
2022-09-10T19:54:28.592Z,97272.34
2022-09-10T19:56:56.566Z,97269.78
2022-09-10T19:59:23.303Z,97275.41
2022-09-10T20:01:50.140Z,97274.28
2022-09-10T20:04:17.068Z,97263.56
2022-09-10T20:06:45.894Z,97264.25
2022-09-10T20:09:13.069Z,97272.13
2022-09-10T20:11:39.948Z,97264.88
2022-09-10T20:14:10.019Z,97275.94
2022-09-10T20:16:38.701Z,97268.13
2022-09-10T20:19:06.547Z,97266.19
2022-09-10T20:21:34.204Z,97270.88
2022-09-10T20:24:00.970Z,97273.16
2022-09-10T20:26:30.015Z,97271.59
2022-09-10T20:28:59.190Z,97279.88
2022-09-10T20:31:27.783Z,97283.59
2022-09-10T20:33:56.549Z,97287.34
2022-09-10T20:36:25.226Z,97295.44
2022-09-10T20:38:53.311Z,97288.59
2022-09-10T20:41:20.444Z,97292.69
2022-09-10T20:43:54.101Z,97293.38
2022-09-10T20:46:22.212Z,97283.97
2022-09-10T20:48:51.496Z,97290.22
2022-09-10T20:51:20.574Z,97291.34
2022-09-10T20:53:47.709Z,97293.38
2022-09-10T20:56:17.929Z,97290.75
2022-09-10T20:58:45.558Z,97298.63
2022-09-10T21:01:21.351Z,97291.75
2022-09-10T21:03:50.258Z,97282.25
2022-09-10T21:06:19.557Z,97285.03
2022-09-10T21:08:47.928Z,97283.06
2022-09-10T21:11:17.084Z,97283.59
2022-09-10T21:13:49.788Z,97287.16
2022-09-10T21:16:23.219Z,97290.53
2022-09-10T21:18:54.795Z,97287.16
2022-09-10T21:21:25.733Z,97285.22
2022-09-10T21:23:56.495Z,97278.88
2022-09-10T21:26:25.869Z,97286.94
2022-09-10T21:28:58.025Z,97290.44
2022-09-10T21:31:27.259Z,97292.09
2022-09-10T21:34:00.671Z,97285.41
2022-09-10T21:36:30.712Z,97290.22
2022-09-10T21:38:59.883Z,97290.63
2022-09-10T21:41:36.058Z,97303.50
2022-09-10T21:44:05.252Z,97306.88
2022-09-10T21:46:32.420Z,97311.47
2022-09-10T21:48:59.686Z,97310.06
2022-09-10T21:51:26.973Z,97324.06
2022-09-10T21:53:55.003Z,97324.06
2022-09-10T21:56:22.803Z,97318.31
2022-09-10T21:58:52.680Z,97309.03
2022-09-10T22:01:24.959Z,97317.41
2022-09-10T22:03:53.428Z,97320.47
2022-09-10T22:06:25.187Z,97327.63
2022-09-10T22:09:01.874Z,97323.03
2022-09-10T22:11:42.998Z,97325.09
2022-09-10T22:14:22.343Z,97331.81
2022-09-10T22:16:49.963Z,97329.78
2022-09-10T22:19:22.679Z,97332.63
2022-09-10T22:21:50.423Z,97335.72
2022-09-10T22:24:22.467Z,97335.00
2022-09-10T22:26:50.042Z,97337.63
2022-09-10T22:29:18.804Z,97340.41
2022-09-10T22:31:46.305Z,97336.31
2022-09-10T22:34:15.141Z,97337.63
2022-09-10T22:36:44.030Z,97338.88
2022-09-10T22:39:16.687Z,97338.03
2022-09-10T22:41:45.132Z,97340.72
2022-09-10T22:44:12.350Z,97339.38
2022-09-10T22:46:40.079Z,97342.44
2022-09-10T22:49:07.467Z,97345.81
2022-09-10T22:51:37.006Z,97352.56
2022-09-10T22:54:04.763Z,97350.31
2022-09-10T22:56:31.823Z,97349.09
2022-09-10T22:58:59.691Z,97354.19
2022-09-10T23:01:29.418Z,97350.00
2022-09-10T23:03:57.452Z,97351.44
2022-09-10T23:06:26.426Z,97356.44
2022-09-10T23:08:55.213Z,97349.91
2022-09-10T23:11:26.758Z,97343.66
2022-09-10T23:14:19.898Z,97349.91
2022-09-10T23:16:48.532Z,97345.91
2022-09-10T23:19:17.910Z,97354.09
2022-09-10T23:21:47.072Z,97362.38
2022-09-10T23:24:15.768Z,97352.47
2022-09-10T23:26:43.239Z,97348.78
2022-09-10T23:29:10.420Z,97352.75
2022-09-10T23:31:38.308Z,97358.25
2022-09-10T23:34:07.950Z,97351.31
2022-09-10T23:36:37.774Z,97355.19
2022-09-10T23:39:07.214Z,97351.63
2022-09-10T23:41:34.335Z,97348.03
2022-09-10T23:44:01.370Z,97349.97
2022-09-10T23:46:28.095Z,97347.81
2022-09-10T23:48:54.815Z,97346.50
2022-09-10T23:51:22.220Z,97352.72
2022-09-10T23:53:49.672Z,97348.41
2022-09-10T23:56:19.465Z,97354.78
2022-09-10T23:58:46.653Z,97351.91
